Time;durP1;ratioP1;P1;durP2;ratioP2;P2;SDS_P1;SDS_P2;PMS_P1;PMS_P2;Temp;Humidity;BMP_temperature;BMP_pressure;BME280_temperature;BME280_humidity;BME280_pressure;Samples;Min_cycle;Max_cycle;Signal;HPM_P1;HPM_P2
2022/12/24 00:00:13;;;;;;;36.88;5.22;;;;;;;10.62;95.36;100676.03;5067710;28;20032;-53
2022/12/24 00:02:38;;;;;;;30.30;6.20;;;;;;;10.60;95.30;100668.28;5068190;28;20016;-51
2022/12/24 00:05:04;;;;;;;32.85;5.55;;;;;;;10.59;95.07;100681.97;5068313;28;20031;-48
2022/12/24 00:07:30;;;;;;;36.53;5.68;;;;;;;10.59;95.16;100681.97;5064755;28;20039;-51
2022/12/24 00:09:55;;;;;;;30.20;5.03;;;;;;;10.58;95.56;100681.94;5070271;28;20162;-52
2022/12/24 00:12:21;;;;;;;33.80;5.25;;;;;;;10.58;95.79;100687.06;5064942;28;20264;-54
2022/12/24 00:14:46;;;;;;;37.67;5.35;;;;;;;10.59;95.78;100684.53;5072029;28;20131;-52
2022/12/24 00:17:12;;;;;;;38.03;5.63;;;;;;;10.56;95.44;100683.59;5065182;28;20119;-53
2022/12/24 00:19:37;;;;;;;37.33;5.00;;;;;;;10.54;95.79;100680.97;5064119;28;20059;-53
2022/12/24 00:22:02;;;;;;;27.08;4.47;;;;;;;10.57;95.79;100695.63;5060233;28;20036;-47
2022/12/24 00:24:28;;;;;;;35.33;5.28;;;;;;;10.50;95.77;100694.59;5059510;28;20032;-44
2022/12/24 00:26:53;;;;;;;34.65;5.85;;;;;;;10.55;95.67;100697.25;5062101;28;20119;-48
2022/12/24 00:29:19;;;;;;;36.58;5.60;;;;;;;10.50;95.75;100709.16;5061250;28;20044;-51
2022/12/24 00:31:45;;;;;;;37.65;6.03;;;;;;;10.52;95.75;100716.06;5065041;28;20036;-51
2022/12/24 00:34:11;;;;;;;35.45;6.15;;;;;;;10.51;96.12;100714.34;5060207;28;20039;-53
2022/12/24 00:36:36;;;;;;;37.33;6.50;;;;;;;10.52;95.80;100718.63;5063610;28;20032;-53
2022/12/24 00:39:02;;;;;;;34.85;5.22;;;;;;;10.51;95.59;100727.19;5063163;28;20028;-53
2022/12/24 00:41:30;;;;;;;36.90;5.43;;;;;;;10.50;95.74;100725.44;5067617;28;20037;-50
2022/12/24 00:44:04;;;;;;;36.35;5.85;;;;;;;10.51;96.29;100729.75;5060656;28;20031;-50
2022/12/24 00:46:31;;;;;;;31.65;5.55;;;;;;;10.46;95.60;100732.19;5061692;28;20042;-50
2022/12/24 00:48:56;;;;;;;35.13;5.70;;;;;;;10.44;95.14;100733.00;5067972;28;20036;-53
2022/12/24 00:51:22;;;;;;;37.67;6.35;;;;;;;10.46;95.49;100734.78;5065418;28;20047;-53
2022/12/24 00:53:48;;;;;;;32.38;5.00;;;;;;;10.45;95.06;100739.88;5063996;28;20037;-52
2022/12/24 00:56:14;;;;;;;34.45;5.07;;;;;;;10.46;95.07;100736.47;5063957;28;20804;-44
2022/12/24 00:58:40;;;;;;;31.15;5.00;;;;;;;10.41;94.44;100749.19;5081765;28;20110;-50
2022/12/24 01:01:05;;;;;;;31.73;5.10;;;;;;;10.42;94.56;100750.06;5064496;28;20032;-52
2022/12/24 01:03:34;;;;;;;30.95;4.40;;;;;;;10.38;94.89;100761.13;5060777;28;20602;-53
2022/12/24 01:06:00;;;;;;;29.25;5.28;;;;;;;10.43;94.40;100759.50;5062944;28;20593;-52
2022/12/24 01:08:26;;;;;;;36.22;5.80;;;;;;;10.44;94.01;100762.16;5062877;28;20033;-52
2022/12/24 01:10:51;;;;;;;27.33;4.90;;;;;;;10.41;93.81;100759.47;5060505;28;20105;-54
2022/12/24 01:13:16;;;;;;;30.05;5.25;;;;;;;10.42;94.00;100758.66;5059342;28;20055;-52
2022/12/24 01:15:42;;;;;;;33.10;5.45;;;;;;;10.42;94.11;100757.78;5062306;28;20051;-50
2022/12/24 01:18:07;;;;;;;33.42;4.80;;;;;;;10.43;93.63;100764.66;5053259;28;20038;-43
2022/12/24 01:20:32;;;;;;;28.25;4.82;;;;;;;10.40;93.68;100764.59;5057758;28;20143;-53
2022/12/24 01:22:59;;;;;;;30.73;5.22;;;;;;;10.36;93.62;100778.16;5060904;28;20378;-45
2022/12/24 01:25:24;;;;;;;26.52;5.00;;;;;;;10.36;94.12;100779.03;5054018;28;20401;-53
2022/12/24 01:27:49;;;;;;;35.42;5.35;;;;;;;10.36;94.01;100785.88;5060572;28;20031;-54
2022/12/24 01:30:15;;;;;;;33.35;5.45;;;;;;;10.39;93.82;100788.56;5063244;28;20112;-53
2022/12/24 01:32:41;;;;;;;32.90;4.88;;;;;;;10.39;93.90;100781.72;5062011;28;20045;-49
2022/12/24 01:35:06;;;;;;;37.20;5.97;;;;;;;10.39;93.81;100785.97;5063023;28;20048;-47
2022/12/24 01:37:32;;;;;;;36.40;5.32;;;;;;;10.37;94.17;100790.19;5052053;28;20585;-46
2022/12/24 01:45:48;;;;;;;29.38;5.45;;;;;;;10.41;94.55;100805.75;5059999;28;20124;-48
2022/12/24 01:48:18;;;;;;;28.00;5.05;;;;;;;10.38;94.18;100797.09;5061673;28;20176;-50
2022/12/24 01:50:44;;;;;;;33.22;4.88;;;;;;;10.34;94.28;100800.41;5063496;28;20032;-54
2022/12/24 01:53:11;;;;;;;36.13;5.68;;;;;;;10.28;94.12;100811.38;5058920;28;20701;-53
2022/12/24 01:55:38;;;;;;;29.85;5.97;;;;;;;10.30;94.28;100803.69;5055710;28;20107;-53
2022/12/24 01:58:05;;;;;;;34.25;5.97;;;;;;;10.29;94.70;100809.69;5050329;28;20036;-46
2022/12/24 02:00:31;;;;;;;35.05;6.05;;;;;;;10.27;94.90;100821.63;5054196;28;20028;-53
2022/12/24 02:02:57;;;;;;;32.70;5.90;;;;;;;10.28;94.96;100818.22;5058524;28;20404;-52
2022/12/24 02:05:48;;;;;;;33.70;6.63;;;;;;;10.29;95.15;100832.81;5058372;28;20028;-49
2022/12/24 02:08:16;;;;;;;38.00;6.00;;;;;;;10.32;95.56;100827.78;5056066;28;20044;-51
2022/12/24 02:10:41;;;;;;;37.65;5.78;;;;;;;10.30;95.43;100829.41;5059505;28;20036;-46
2022/12/24 02:13:07;;;;;;;30.45;5.22;;;;;;;10.28;95.72;100829.38;5054974;28;20024;-51
2022/12/24 02:16:07;;;;;;;31.05;5.72;;;;;;;10.37;95.68;100833.88;5056216;28;20390;-52
2022/12/24 02:18:54;;;;;;;33.72;5.78;;;;;;;10.35;95.39;100832.97;5055613;28;20044;-50
2022/12/24 02:21:39;;;;;;;32.22;6.03;;;;;;;10.33;95.94;100842.34;5057085;28;20040;-51
2022/12/24 02:24:23;;;;;;;31.90;5.85;;;;;;;10.35;96.05;100838.13;5057065;28;20109;-52
2022/12/24 02:27:27;;;;;;;39.15;6.53;;;;;;;10.37;96.42;100828.75;5064839;28;20025;-47
2022/12/24 02:30:31;;;;;;;32.28;6.05;;;;;;;10.39;96.00;100845.09;5054699;28;20036;-51
2022/12/24 02:33:26;;;;;;;42.72;6.30;;;;;;;10.35;96.14;100841.56;5056592;28;20497;-48
2022/12/24 02:36:00;;;;;;;38.38;6.47;;;;;;;10.36;96.29;100857.84;5059716;28;20638;-53
2022/12/24 02:38:35;;;;;;;34.95;6.53;;;;;;;10.35;96.44;100845.84;5056011;28;20032;-53
2022/12/24 02:41:03;;;;;;;34.67;6.15;;;;;;;10.31;96.69;100854.28;5055472;28;20033;-51
2022/12/24 02:43:34;;;;;;;32.97;6.95;;;;;;;10.31;96.96;100851.69;5056888;28;20489;-54
2022/12/24 02:46:05;;;;;;;37.55;6.97;;;;;;;10.34;97.13;100849.22;5061022;28;20028;-51
2022/12/24 02:48:31;;;;;;;39.72;7.50;;;;;;;10.33;97.29;100861.22;5057498;28;20495;-51
2022/12/24 02:51:06;;;;;;;32.92;7.20;;;;;;;10.32;97.61;100858.63;5055806;28;20110;-53
2022/12/24 02:53:32;;;;;;;37.95;7.40;;;;;;;10.32;97.47;100861.19;5054918;28;20420;-52
2022/12/24 02:56:03;;;;;;;35.28;6.93;;;;;;;10.35;97.64;100858.69;5060343;28;20036;-46
2022/12/24 02:58:44;;;;;;;40.35;6.97;;;;;;;10.35;97.91;100862.13;5055097;28;20105;-50
2022/12/24 03:01:15;;;;;;;43.83;7.80;;;;;;;10.34;97.75;100862.09;5054416;28;20098;-53
2022/12/24 03:04:09;;;;;;;37.08;7.75;;;;;;;10.39;98.03;100863.97;5055115;28;20029;-46
2022/12/24 03:06:53;;;;;;;39.15;8.13;;;;;;;10.38;98.22;100869.94;5054730;28;20947;-49
2022/12/24 03:09:31;;;;;;;35.58;7.35;;;;;;;10.38;98.23;100866.50;5057786;28;20032;-46
2022/12/24 03:12:13;;;;;;;36.90;5.80;;;;;;;10.37;98.43;100863.03;5056058;28;20047;-53
2022/12/24 03:14:40;;;;;;;36.22;6.88;;;;;;;10.33;98.49;100865.50;5057584;28;20528;-52
2022/12/24 03:17:06;;;;;;;29.75;6.00;;;;;;;10.35;98.41;100872.41;5054758;28;20036;-49
2022/12/24 03:19:33;;;;;;;40.35;5.75;;;;;;;10.33;98.92;100865.50;5058440;28;20509;-50
2022/12/24 03:22:03;;;;;;;33.08;6.95;;;;;;;10.35;99.00;100869.84;5060533;28;20500;-50
2022/12/24 03:24:28;;;;;;;29.27;5.47;;;;;;;10.33;98.85;100857.78;5059572;28;20868;-51
2022/12/24 03:26:54;;;;;;;39.38;6.57;;;;;;;10.34;99.12;100870.66;5055927;28;20200;-50
2022/12/24 03:29:19;;;;;;;35.58;6.95;;;;;;;10.35;98.86;100869.84;5053322;28;20049;-52
2022/12/24 03:31:48;;;;;;;37.08;6.70;;;;;;;10.36;99.15;100871.56;5052985;28;20032;-50
2022/12/24 03:34:14;;;;;;;32.90;5.87;;;;;;;10.36;99.01;100870.69;5053941;28;20571;-48
2022/12/24 03:36:41;;;;;;;35.78;6.40;;;;;;;10.38;99.46;100880.22;5054859;28;20127;-51
2022/12/24 03:39:06;;;;;;;37.33;6.70;;;;;;;10.36;99.23;100880.97;5056523;28;20032;-53
2022/12/24 03:41:32;;;;;;;33.70;6.20;;;;;;;10.38;99.36;100879.34;5055299;28;20480;-53
2022/12/24 03:43:57;;;;;;;29.25;6.18;;;;;;;10.38;99.39;100881.91;5056470;28;20075;-53
2022/12/24 03:46:22;;;;;;;34.60;7.03;;;;;;;10.36;99.63;100875.84;5056598;28;20579;-48
2022/12/24 03:48:48;;;;;;;35.63;5.78;;;;;;;10.38;99.45;100880.22;5054767;28;20028;-46
2022/12/24 03:51:19;;;;;;;35.63;6.28;;;;;;;10.38;99.94;100881.91;5056460;28;20519;-53
2022/12/24 03:53:44;;;;;;;34.88;6.38;;;;;;;10.36;99.94;100889.56;5056489;28;20021;-54
2022/12/24 03:56:10;;;;;;;35.45;6.50;;;;;;;10.37;99.93;100885.28;5054838;28;20077;-50
2022/12/24 03:58:35;;;;;;;42.00;6.55;;;;;;;10.41;100.00;100884.56;5054894;28;20177;-44
2022/12/24 04:01:01;;;;;;;37.33;7.00;;;;;;;10.40;100.00;100890.53;5056335;28;20036;-49
2022/12/24 04:03:27;;;;;;;35.30;6.97;;;;;;;10.44;100.00;100889.81;5053912;28;20024;-53
2022/12/24 04:06:03;;;;;;;39.30;7.25;;;;;;;10.45;100.00;100886.41;5057427;28;20048;-47
2022/12/24 04:08:29;;;;;;;39.33;7.10;;;;;;;10.42;100.00;100894.00;5052655;28;20506;-52
2022/12/24 04:10:54;;;;;;;37.65;7.43;;;;;;;10.43;100.00;100888.94;5059369;28;20036;-54
2022/12/24 04:13:20;;;;;;;36.40;7.00;;;;;;;10.44;100.00;100890.69;5061247;28;20032;-53
2022/12/24 04:15:45;;;;;;;33.33;7.07;;;;;;;10.44;100.00;100900.09;5059866;28;20047;-51
2022/12/24 04:18:10;;;;;;;32.72;7.35;;;;;;;10.45;100.00;100909.53;5057474;28;20039;-53
2022/12/24 04:20:36;;;;;;;33.55;6.68;;;;;;;10.46;100.00;100907.00;5062898;28;20296;-50
2022/12/24 04:23:01;;;;;;;33.72;7.18;;;;;;;10.47;100.00;100910.44;5061566;28;20040;-52
2022/12/24 04:25:26;;;;;;;36.00;7.68;;;;;;;10.47;100.00;100911.31;5060155;28;20412;-48
2022/12/24 04:27:52;;;;;;;32.35;7.55;;;;;;;10.48;100.00;100912.19;5061720;28;20032;-51
2022/12/24 04:30:17;;;;;;;30.13;6.93;;;;;;;10.46;100.00;100919.00;5061157;28;20181;-45
2022/12/24 04:32:42;;;;;;;30.65;6.65;;;;;;;10.45;100.00;100906.97;5061013;28;20531;-53
2022/12/24 04:35:08;;;;;;;34.80;7.43;;;;;;;10.48;100.00;100913.06;5060448;28;20259;-54
2022/12/24 04:37:34;;;;;;;28.52;6.78;;;;;;;10.47;100.00;100919.03;5060758;28;20039;-51
2022/12/24 04:39:59;;;;;;;32.88;6.95;;;;;;;10.50;100.00;100915.69;5058499;28;20070;-47
2022/12/24 04:42:24;;;;;;;29.60;7.22;;;;;;;10.50;100.00;100918.25;5059925;28;20451;-53
2022/12/24 04:44:50;;;;;;;30.85;6.13;;;;;;;10.50;100.00;100913.13;5056497;28;20037;-50
2022/12/24 04:47:15;;;;;;;28.73;6.45;;;;;;;10.49;100.00;100921.63;5057252;28;20032;-50
2022/12/24 04:49:41;;;;;;;29.48;6.45;;;;;;;10.50;100.00;100928.56;5059751;28;20032;-52
2022/12/24 04:52:06;;;;;;;37.00;7.68;;;;;;;10.51;100.00;100921.72;5057316;28;20034;-50
2022/12/24 04:54:31;;;;;;;27.42;6.57;;;;;;;10.50;100.00;100920.84;5057208;28;20040;-54
2022/12/24 04:56:57;;;;;;;27.48;6.30;;;;;;;10.50;100.00;100920.84;5057356;28;20036;-48
2022/12/24 04:59:23;;;;;;;25.83;6.22;;;;;;;10.50;100.00;100928.56;5059897;28;20117;-53
2022/12/24 05:01:48;;;;;;;33.60;6.13;;;;;;;10.50;100.00;100923.41;5062307;28;20029;-51
2022/12/24 05:04:13;;;;;;;31.02;6.50;;;;;;;10.50;100.00;100930.25;5058538;28;20056;-53
2022/12/24 05:06:39;;;;;;;34.97;6.38;;;;;;;10.51;100.00;100929.41;5056943;28;20105;-51
2022/12/24 05:09:04;;;;;;;32.20;5.65;;;;;;;10.49;100.00;100931.91;5053892;28;20488;-44
2022/12/24 05:11:30;;;;;;;28.48;6.35;;;;;;;10.48;100.00;100931.06;5058816;28;20036;-51
2022/12/24 05:13:55;;;;;;;30.60;6.18;;;;;;;10.48;100.00;100938.75;5059791;28;20032;-53
2022/12/24 05:16:22;;;;;;;29.58;6.55;;;;;;;10.50;100.00;100935.41;5058231;28;20527;-48
2022/12/24 05:18:47;;;;;;;28.73;5.75;;;;;;;10.50;100.00;100936.25;5057100;28;20611;-52
2022/12/24 05:21:16;;;;;;;38.22;6.15;;;;;;;10.50;100.00;100940.53;5060859;28;20126;-53
2022/12/24 05:26:34;;;;;;;36.28;6.68;;;;;;;10.54;100.00;100932.94;5057206;28;20043;-53
2022/12/24 05:29:00;;;;;;;35.85;6.65;;;;;;;10.52;100.00;100933.72;5059965;28;20028;-53
2022/12/24 05:31:28;;;;;;;35.60;6.30;;;;;;;10.51;100.00;100932.84;5057856;28;20021;-54
2022/12/24 05:33:54;;;;;;;28.70;5.80;;;;;;;10.51;100.00;100942.28;5058279;28;20059;-54
2022/12/24 05:36:20;;;;;;;33.08;5.97;;;;;;;10.51;100.00;100937.13;5061782;28;20401;-50
2022/12/24 05:38:45;;;;;;;28.35;5.97;;;;;;;10.48;100.00;100936.19;5056567;28;20032;-48
2022/12/24 05:41:11;;;;;;;36.40;6.55;;;;;;;10.47;100.00;100926.75;5059747;28;20036;-48
2022/12/24 05:43:37;;;;;;;26.67;5.40;;;;;;;10.50;100.00;100940.53;5055479;28;20037;-47
2022/12/24 05:46:06;;;;;;;32.05;6.07;;;;;;;10.49;100.00;100944.78;5059962;28;20034;-48
2022/12/24 05:48:31;;;;;;;29.08;5.78;;;;;;;10.49;100.00;100944.78;5057943;28;20401;-52
2022/12/24 05:50:57;;;;;;;33.13;6.22;;;;;;;10.50;100.00;100945.69;5059372;28;20039;-53
2022/12/24 05:53:22;;;;;;;32.40;5.35;;;;;;;10.48;100.00;100945.59;5058010;28;20037;-53
2022/12/24 05:55:47;;;;;;;28.85;6.22;;;;;;;10.48;100.00;100955.91;5057847;28;20033;-50
2022/12/24 05:58:13;;;;;;;29.70;6.20;;;;;;;10.46;100.00;100965.25;5056797;28;20067;-54
2022/12/24 06:00:38;;;;;;;34.83;6.60;;;;;;;10.44;100.00;100967.81;5056028;28;20424;-51
2022/12/24 06:03:04;;;;;;;37.65;6.53;;;;;;;10.45;99.99;100974.69;5056386;28;20480;-52
2022/12/24 06:05:29;;;;;;;34.22;6.65;;;;;;;10.45;100.00;100978.94;5059251;28;20095;-47
2022/12/24 06:07:55;;;;;;;32.58;6.28;;;;;;;10.44;100.00;100972.06;5059697;28;20479;-51
2022/12/24 06:10:20;;;;;;;31.77;6.60;;;;;;;10.47;100.00;100982.44;5056669;28;20044;-54
2022/12/24 06:12:46;;;;;;;32.72;6.90;;;;;;;10.43;100.00;100981.47;5058235;28;20469;-51
2022/12/24 06:15:11;;;;;;;35.97;7.15;;;;;;;10.43;100.00;100976.34;5059748;28;20030;-53
2022/12/24 06:17:36;;;;;;;31.90;6.40;;;;;;;10.44;100.00;100980.66;5062017;28;20555;-52
2022/12/24 06:20:02;;;;;;;35.15;6.40;;;;;;;10.42;100.00;100983.97;5060446;28;20060;-51
2022/12/24 06:22:28;;;;;;;33.35;6.72;;;;;;;10.43;100.00;100986.63;5060694;28;20040;-54
2022/12/24 06:24:53;;;;;;;29.50;7.22;;;;;;;10.40;100.00;100980.50;5057788;28;20411;-49
2022/12/24 06:27:19;;;;;;;24.73;5.70;;;;;;;10.43;100.00;100985.72;5060238;28;20092;-52
2022/12/24 06:29:45;;;;;;;30.23;6.13;;;;;;;10.40;100.00;100980.50;5061847;28;20123;-53
2022/12/24 06:32:10;;;;;;;29.60;5.95;;;;;;;10.39;100.00;100996.75;5062784;28;22026;-46
2022/12/24 06:34:35;;;;;;;31.02;5.78;;;;;;;10.40;99.89;101001.06;5059557;28;20028;-53
2022/12/24 06:37:01;;;;;;;32.05;6.25;;;;;;;10.38;99.88;101010.44;5057697;28;20032;-51
2022/12/24 06:39:27;;;;;;;37.10;6.60;;;;;;;10.39;99.10;101014.75;5060437;28;20511;-53
2022/12/24 06:41:52;;;;;;;23.17;5.43;;;;;;;10.38;99.22;101007.88;5062181;28;20086;-51
2022/12/24 06:44:17;;;;;;;31.85;5.75;;;;;;;10.36;99.45;101007.81;5062463;28;20471;-52
2022/12/24 06:46:43;;;;;;;34.33;6.20;;;;;;;10.35;99.34;101008.63;5056079;28;20033;-48
2022/12/24 06:49:08;;;;;;;41.10;6.60;;;;;;;10.38;99.00;101018.16;5056203;28;20032;-47
2022/12/24 06:51:33;;;;;;;28.92;5.82;;;;;;;10.35;98.65;101011.19;5059525;28;20040;-53
2022/12/24 06:53:59;;;;;;;30.52;6.18;;;;;;;10.35;98.34;101006.06;5054423;28;20032;-53
2022/12/24 06:56:24;;;;;;;24.17;5.53;;;;;;;10.38;98.78;101015.59;5057654;28;20137;-53
2022/12/24 06:58:50;;;;;;;34.55;6.40;;;;;;;10.37;98.51;101014.69;5055444;28;20025;-51
2022/12/24 07:01:18;;;;;;;31.23;6.30;;;;;;;10.36;98.29;101009.50;5055067;28;20327;-47
2022/12/24 07:03:44;;;;;;;29.25;5.55;;;;;;;10.34;98.01;101027.47;5057372;28;20350;-54
2022/12/24 07:06:18;;;;;;;31.05;5.65;;;;;;;10.37;98.12;101021.53;5056180;28;20541;-54
2022/12/24 07:08:43;;;;;;;27.08;5.88;;;;;;;10.35;98.15;101020.63;5057117;28;20020;-49
2022/12/24 07:11:08;;;;;;;37.03;6.88;;;;;;;10.35;97.44;101024.06;5057716;28;20331;-54
2022/12/24 07:13:34;;;;;;;37.50;6.93;;;;;;;10.37;97.62;101026.66;5057841;28;20036;-53
2022/12/24 07:16:01;;;;;;;33.15;6.30;;;;;;;10.36;97.37;101032.63;5056066;28;20024;-53
2022/12/24 07:18:26;;;;;;;36.22;6.70;;;;;;;10.36;97.50;101032.63;5057102;28;20481;-51
2022/12/24 07:20:52;;;;;;;36.72;6.07;;;;;;;10.35;97.36;101033.47;5059793;28;20049;-52
2022/12/24 07:23:18;;;;;;;28.88;5.85;;;;;;;10.41;97.42;101039.66;5060016;28;20024;-49
2022/12/24 07:25:43;;;;;;;38.90;6.57;;;;;;;10.35;96.87;101034.34;5064512;28;20024;-54
2022/12/24 07:28:08;;;;;;;30.88;5.75;;;;;;;10.35;97.07;101044.63;5058138;28;20032;-54
2022/12/24 07:30:34;;;;;;;34.10;5.90;;;;;;;10.35;97.21;101036.03;5060774;28;20033;-49
2022/12/24 07:32:59;;;;;;;31.02;6.60;;;;;;;10.35;97.06;101046.31;5058325;28;20041;-52
2022/12/24 07:35:25;;;;;;;31.55;6.00;;;;;;;10.31;97.28;101050.47;5057500;28;20040;-51
2022/12/24 07:37:50;;;;;;;36.13;6.68;;;;;;;10.31;97.17;101059.88;5057948;28;20438;-52
2022/12/24 07:40:16;;;;;;;33.22;6.50;;;;;;;10.33;97.17;101059.13;5057554;28;20029;-55
2022/12/24 07:42:41;;;;;;;32.30;6.55;;;;;;;10.31;97.40;101063.31;5059292;28;20044;-53
2022/12/24 07:45:07;;;;;;;30.27;5.97;;;;;;;10.31;97.40;101070.16;5056705;28;21241;-45
2022/12/24 07:47:33;;;;;;;32.65;5.72;;;;;;;10.29;97.59;101070.13;5059563;28;20241;-50
2022/12/24 07:49:59;;;;;;;38.13;5.88;;;;;;;10.25;97.19;101068.28;5059945;28;20138;-54
2022/12/24 07:52:24;;;;;;;32.85;5.85;;;;;;;10.27;97.52;101076.91;5065127;28;20039;-53
2022/12/24 07:54:50;;;;;;;38.97;5.72;;;;;;;10.26;97.56;101089.72;5063362;28;20434;-46
2022/12/24 07:57:15;;;;;;;34.95;6.35;;;;;;;10.24;97.76;101092.22;5060565;28;20051;-54
2022/12/24 07:59:40;;;;;;;31.88;6.15;;;;;;;10.21;97.88;101097.25;5058294;28;20546;-49
2022/12/24 08:02:09;;;;;;;37.58;6.05;;;;;;;10.20;98.32;101114.38;5064184;28;20467;-51
2022/12/24 08:04:35;;;;;;;32.70;5.93;;;;;;;10.19;98.13;101115.19;5062020;28;20024;-51
2022/12/24 08:07:02;;;;;;;39.65;6.95;;;;;;;10.20;98.53;101122.06;5063654;28;20028;-53
2022/12/24 08:09:31;;;;;;;31.15;5.63;;;;;;;10.23;98.61;101115.28;5057358;28;20032;-52
2022/12/24 08:11:56;;;;;;;37.28;7.05;;;;;;;10.20;98.68;101122.06;5061414;28;20035;-53
2022/12/24 08:14:21;;;;;;;33.83;6.25;;;;;;;10.20;98.73;101123.78;5059499;28;20032;-52
2022/12/24 08:16:47;;;;;;;32.90;6.07;;;;;;;10.19;98.77;101133.19;5060581;28;20032;-50
2022/12/24 08:19:12;;;;;;;44.95;6.93;;;;;;;10.20;98.82;101136.63;5062902;28;20494;-51
2022/12/24 08:21:38;;;;;;;30.55;5.20;;;;;;;10.21;99.01;101154.66;5059746;28;20032;-50
2022/12/24 08:24:03;;;;;;;34.47;5.55;;;;;;;10.25;99.08;101147.06;5063017;28;20090;-54
2022/12/24 08:26:29;;;;;;;33.50;5.55;;;;;;;10.26;99.16;101149.72;5059007;28;20033;-52
2022/12/24 08:28:54;;;;;;;28.60;5.63;;;;;;;10.26;99.19;101151.41;5059071;28;20392;-50
2022/12/24 08:31:19;;;;;;;35.22;7.07;;;;;;;10.24;99.50;101165.88;5060767;28;20032;-53
2022/12/24 08:33:45;;;;;;;37.58;5.70;;;;;;;10.23;99.36;101159.88;5059211;28;20085;-50
2022/12/24 08:36:10;;;;;;;33.05;5.15;;;;;;;10.25;99.54;101158.22;5061232;28;20032;-51
2022/12/24 08:38:36;;;;;;;30.67;5.57;;;;;;;10.26;99.44;101166.84;5060073;28;20070;-54
2022/12/24 08:41:01;;;;;;;34.33;5.93;;;;;;;10.29;99.36;101166.91;5063557;28;20488;-51
2022/12/24 08:43:26;;;;;;;28.95;5.18;;;;;;;10.29;98.96;101172.06;5061887;28;20020;-53
2022/12/24 08:45:52;;;;;;;32.50;5.55;;;;;;;10.31;99.19;101178.13;5058043;28;20021;-51
2022/12/24 08:48:18;;;;;;;31.30;5.43;;;;;;;10.31;99.33;101172.97;5059296;28;20037;-49
2022/12/24 08:50:44;;;;;;;32.75;5.65;;;;;;;10.34;99.41;101171.41;5057711;28;20029;-53
2022/12/24 08:53:10;;;;;;;31.30;5.95;;;;;;;10.36;99.27;101174.88;5059482;28;20036;-56
2022/12/24 08:55:36;;;;;;;31.73;5.70;;;;;;;10.32;98.97;101188.47;5057080;28;20041;-52
2022/12/24 08:58:01;;;;;;;28.77;5.45;;;;;;;10.36;99.26;101187.75;5060059;28;20040;-53
2022/12/24 09:00:26;;;;;;;34.67;6.32;;;;;;;10.37;99.69;101189.47;5066917;28;20028;-50
2022/12/24 09:02:52;;;;;;;35.60;6.15;;;;;;;10.39;99.88;101193.00;5060986;28;20043;-48
2022/12/24 09:05:17;;;;;;;28.95;6.10;;;;;;;10.44;99.99;101194.03;5061141;28;20055;-47
2022/12/24 09:07:43;;;;;;;34.67;6.38;;;;;;;10.48;99.79;101187.28;5065248;28;20035;-52
2022/12/24 09:10:09;;;;;;;32.95;6.57;;;;;;;10.49;99.66;101196.72;5070292;28;20127;-52
2022/12/24 09:12:35;;;;;;;34.78;7.28;;;;;;;10.54;99.54;101202.91;5071221;28;20052;-53
2022/12/24 09:15:02;;;;;;;32.40;7.20;;;;;;;10.57;99.25;101212.44;5069835;28;20454;-47
2022/12/24 09:17:27;;;;;;;32.60;6.55;;;;;;;10.65;98.90;101222.16;5067702;28;20028;-53
2022/12/24 09:19:52;;;;;;;33.70;6.30;;;;;;;10.70;98.85;101217.16;5067919;28;20535;-53
2022/12/24 09:22:18;;;;;;;35.58;6.32;;;;;;;10.73;98.59;101220.69;5060559;28;20047;-49
2022/12/24 09:24:43;;;;;;;29.25;6.07;;;;;;;10.78;98.75;101222.56;5061859;28;20040;-53
2022/12/24 09:27:08;;;;;;;32.85;6.40;;;;;;;10.78;98.74;101238.84;5061752;28;20043;-51
2022/12/24 09:29:35;;;;;;;34.00;6.40;;;;;;;10.79;98.64;101240.59;5059923;28;20117;-48
2022/12/24 09:32:00;;;;;;;37.45;6.28;;;;;;;10.78;98.69;101248.28;5059624;28;20085;-53
2022/12/24 09:34:25;;;;;;;33.13;7.53;;;;;;;10.75;98.85;101246.50;5068092;28;20040;-53
2022/12/24 09:36:53;;;;;;;30.35;6.82;;;;;;;10.74;98.69;101253.34;5057684;28;20457;-51
2022/12/24 09:39:19;;;;;;;31.65;6.20;;;;;;;10.76;98.97;101247.38;5048977;28;20044;-49
2022/12/24 09:42:05;;;;;;;30.05;6.00;;;;;;;10.83;99.21;101254.47;5069375;28;20032;-51
2022/12/24 09:44:39;;;;;;;32.53;5.97;;;;;;;10.85;99.14;101257.94;5061837;28;20115;-48
2022/12/24 09:47:22;;;;;;;38.03;6.32;;;;;;;10.92;99.46;101259.88;5063365;28;20039;-49
2022/12/24 09:49:52;;;;;;;37.05;6.85;;;;;;;10.90;99.28;101252.13;5066383;28;20157;-49
2022/12/24 09:52:26;;;;;;;;;;;;;;;11.04;99.17;101262.84;5061832;28;20032;-53
2022/12/24 09:55:09;;;;;;;32.00;6.00;;;;;;;11.00;99.16;101259.34;5065113;28;19916;-51
2022/12/24 09:57:39;;;;;;;34.92;6.25;;;;;;;11.00;98.54;101264.47;5061752;28;20032;-52
2022/12/24 10:00:15;;;;;;;30.83;5.70;;;;;;;11.05;98.36;101267.22;5062023;28;20465;-47
2022/12/24 10:02:40;;;;;;;34.50;6.65;;;;;;;11.08;97.82;101269.00;5060415;28;20086;-53
2022/12/24 10:05:13;;;;;;;29.02;5.72;;;;;;;11.22;97.66;101275.44;5066890;28;20028;-53
2022/12/24 10:08:14;;;;;;;32.40;6.70;;;;;;;11.25;97.14;101288.44;5058307;28;20509;-52
2022/12/24 10:10:54;;;;;;;30.48;6.40;;;;;;;11.21;96.87;101284.88;5063323;28;20037;-49
2022/12/24 10:13:46;;;;;;;38.25;7.03;;;;;;;11.23;97.02;101285.81;5062500;28;20039;-50
2022/12/24 10:16:45;;;;;;;31.58;6.10;;;;;;;11.33;97.06;101281.81;5062457;28;20072;-51
2022/12/24 10:19:28;;;;;;;42.95;6.53;;;;;;;11.40;96.84;101280.31;5062260;28;20047;-47
2022/12/24 10:22:12;;;;;;;33.47;6.30;;;;;;;11.49;96.28;101267.72;5066183;28;20040;-52
2022/12/24 10:24:40;;;;;;;31.15;6.40;;;;;;;11.55;96.20;101266.22;5061489;28;20040;-53
2022/12/24 10:27:13;;;;;;;34.30;6.07;;;;;;;11.73;95.94;101260.75;5062132;28;20036;-49
2022/12/24 10:29:47;;;;;;;38.90;6.47;;;;;;;11.82;95.52;101261.03;5061588;28;20104;-47
2022/12/24 10:32:20;;;;;;;38.35;6.82;;;;;;;11.80;94.45;101257.50;5059329;28;20020;-49
2022/12/24 10:34:54;;;;;;;38.10;6.15;;;;;;;11.82;94.54;101263.59;5058220;28;20033;-52
2022/12/24 10:37:23;;;;;;;35.90;6.57;;;;;;;11.86;94.22;101266.28;5061970;28;20060;-49
2022/12/24 10:39:49;;;;;;;37.83;6.65;;;;;;;11.76;93.81;101273.69;5086968;27;20036;-52
2022/12/24 10:42:16;;;;;;;33.47;7.38;;;;;;;11.76;93.50;101278.84;5060119;28;20040;-53
2022/12/24 10:44:48;;;;;;;32.45;6.68;;;;;;;11.72;93.71;101282.19;5060843;28;20032;-49
2022/12/24 10:47:16;;;;;;;39.22;7.28;;;;;;;11.69;93.50;101281.19;5059688;28;20039;-47
2022/12/24 10:49:51;;;;;;;32.88;6.63;;;;;;;11.70;94.34;101277.78;5058951;28;20028;-50
2022/12/24 10:52:21;;;;;;;32.67;6.10;;;;;;;11.66;93.58;101273.41;5059394;28;20536;-52
2022/12/24 10:55:21;;;;;;;33.40;6.55;;;;;;;11.72;93.92;101274.47;5062990;28;20035;-49
2022/12/24 10:57:58;;;;;;;33.20;6.63;;;;;;;11.67;93.88;101278.59;5062349;28;20522;-52
2022/12/24 11:00:24;;;;;;;33.40;6.45;;;;;;;11.71;93.82;101279.53;5055852;28;20060;-52
2022/12/24 11:03:19;;;;;;;36.97;7.05;;;;;;;11.73;93.54;101277.91;5056607;28;20124;-47
2022/12/24 11:05:45;;;;;;;29.88;6.43;;;;;;;11.68;92.75;101279.47;5062064;28;20485;-53
2022/12/24 11:08:19;;;;;;;34.10;6.72;;;;;;;11.65;92.90;101287.09;5061541;28;20032;-52
2022/12/24 11:10:59;;;;;;;36.30;6.22;;;;;;;11.61;92.74;101285.25;5060638;28;20029;-52
2022/12/24 11:13:26;;;;;;;36.75;6.00;;;;;;;11.60;92.54;101280.94;5067678;28;20067;-47
2022/12/24 11:16:08;;;;;;;37.08;6.00;;;;;;;11.62;92.63;101298.19;5066322;28;20028;-52
2022/12/24 11:18:43;;;;;;;30.50;5.95;;;;;;;11.55;90.66;101296.25;5067079;28;20468;-53
2022/12/24 11:21:08;;;;;;;33.95;5.47;;;;;;;11.53;90.03;101292.75;5064444;28;20500;-48
2022/12/24 11:23:34;;;;;;;29.10;5.97;;;;;;;11.53;89.90;101287.59;5082969;28;20035;-46
2022/12/24 11:26:00;;;;;;;31.10;5.20;;;;;;;11.52;89.79;101293.56;5064826;28;20036;-52
2022/12/24 11:28:31;;;;;;;29.58;5.28;;;;;;;11.50;88.92;101298.66;5069317;28;20033;-53
2022/12/24 11:31:19;;;;;;;31.13;5.40;;;;;;;11.52;87.81;101293.56;5068412;28;20569;-52